Time;durP1;ratioP1;P1;durP2;ratioP2;P2;SDS_P1;SDS_P2;PMS_P1;PMS_P2;Temp;Humidity;BMP_temperature;BMP_pressure;BME280_temperature;BME280_humidity;BME280_pressure;Samples;Min_cycle;Max_cycle;Signal;HPM_P1;HPM_P2
2023/04/18 00:00:05;;;;;;;;;;;6.30;99.90;;;;;;5112626;28;20376;-70
2023/04/18 00:02:32;;;;;;;;;;;6.30;99.90;;;;;;5093231;28;19920;-70
2023/04/18 00:04:57;;;;;;;;;;;6.20;99.90;;;;;;5113069;28;19959;-70
2023/04/18 00:07:23;;;;;;;;;;;6.90;99.90;;;;;;5094309;28;19955;-70
2023/04/18 00:09:48;;;;;;;;;;;6.20;99.90;;;;;;5112858;28;19992;-70
2023/04/18 00:12:14;;;;;;;;;;;6.70;99.90;;;;;;5112757;28;19931;-70
2023/04/18 00:14:40;;;;;;;;;;;6.20;99.90;;;;;;5094086;28;19919;-70
2023/04/18 00:17:09;;;;;;;;;;;6.00;99.90;;;;;;5094504;28;19973;-70
2023/04/18 00:19:41;;;;;;;;;;;6.10;99.90;;;;;;5094856;28;19969;-70
2023/04/18 00:22:08;;;;;;;;;;;5.90;99.90;;;;;;5094042;28;20343;-70
2023/04/18 00:24:33;;;;;;;;;;;5.90;99.90;;;;;;5094484;28;19963;-70
2023/04/18 00:27:00;;;;;;;;;;;5.90;99.90;;;;;;5112645;28;19978;-70
2023/04/18 00:29:26;;;;;;;;;;;6.60;99.90;;;;;;5094473;28;20010;-70
2023/04/18 00:31:51;;;;;;;;;;;5.90;99.90;;;;;;5098460;28;20410;-70
2023/04/18 00:34:16;;;;;;;;;;;5.90;99.90;;;;;;5117040;28;19968;-70
2023/04/18 00:36:42;;;;;;;;;;;6.00;99.90;;;;;;5116381;28;19928;-70
2023/04/18 00:39:07;;;;;;;;;;;6.00;99.90;;;;;;5097926;28;19928;-70
2023/04/18 00:41:33;;;;;;;;;;;6.10;99.90;;;;;;5098037;28;19924;-70
2023/04/18 00:43:58;;;;;;;;;;;6.10;99.90;;;;;;5116855;28;19931;-70
2023/04/18 00:46:24;;;;;;;;;;;6.10;99.90;;;;;;5098507;28;19927;-70
2023/04/18 00:48:50;;;;;;;;;;;6.20;99.90;;;;;;5116101;28;19931;-70
2023/04/18 00:51:15;;;;;;;;;;;6.30;99.90;;;;;;5116449;28;20286;-70
2023/04/18 00:53:41;;;;;;;;;;;6.30;99.90;;;;;;5098781;28;19973;-70
2023/04/18 00:56:07;;;;;;;;;;;6.40;99.90;;;;;;5097438;28;20367;-71
2023/04/18 00:58:32;;;;;;;;;;;6.40;99.90;;;;;;5116108;28;19928;-70
2023/04/18 01:00:58;;;;;;;;;;;6.40;99.90;;;;;;5116341;28;20405;-70
2023/04/18 01:03:26;;;;;;;;;;;6.40;99.90;;;;;;5115925;28;19924;-70
2023/04/18 01:05:52;;;;;;;;;;;6.50;99.90;;;;;;5097969;28;19939;-70
2023/04/18 01:08:20;;;;;;;;;;;6.50;99.90;;;;;;5097977;28;20307;-70
2023/04/18 01:10:46;;;;;;;;;;;6.50;99.90;;;;;;5101184;28;19923;-70
2023/04/18 01:13:20;;;;;;;;;;;6.60;99.90;;;;;;5097871;28;19977;-70
2023/04/18 01:15:46;;;;;;;;;;;6.50;99.90;;;;;;5116499;28;19930;-70
2023/04/18 01:18:19;;;;;;;;;;;6.60;99.90;;;;;;5096908;28;20032;-70
2023/04/18 01:20:49;;;;;;;;;;;6.50;99.90;;;;;;5097955;28;20014;-70
2023/04/18 01:23:15;;;;;;;;;;;6.50;99.90;;;;;;5115802;28;19926;-70
2023/04/18 01:25:41;;;;;;;;;;;6.50;99.90;;;;;;5115247;28;20022;-71
2023/04/18 01:28:06;;;;;;;;;;;6.40;99.90;;;;;;5115896;28;19930;-70
2023/04/18 01:30:33;;;;;;;;;;;6.40;99.90;;;;;;5115955;28;19985;-70
2023/04/18 01:33:02;;;;;;;;;;;6.40;99.90;;;;;;5114923;28;19966;-72
2023/04/18 01:35:28;;;;;;;;;;;6.30;99.90;;;;;;5115673;28;20314;-72
2023/04/18 01:37:53;;;;;;;;;;;6.30;99.90;;;;;;5114520;28;19986;-71
2023/04/18 01:40:19;;;;;;;;;;;6.20;99.90;;;;;;5097956;28;19923;-72
2023/04/18 01:42:45;;;;;;;;;;;6.30;99.90;;;;;;5096526;28;20371;-72
2023/04/18 01:45:10;;;;;;;;;;;6.50;99.90;;;;;;5095974;28;20358;-72
2023/04/18 01:47:36;;;;;;;;;;;6.20;99.90;;;;;;5097588;28;19927;-71
2023/04/18 01:50:02;;;;;;;;;;;6.60;99.90;;;;;;5115306;28;19924;-71
2023/04/18 01:52:27;;;;;;;;;;;6.20;99.90;;;;;;5096606;28;20298;-72
2023/04/18 01:54:53;;;;;;;;;;;6.30;99.90;;;;;;5096596;28;19919;-72
2023/04/18 01:57:18;;;;;;;;;;;6.40;99.90;;;;;;5097020;28;19928;-71
2023/04/18 01:59:44;;;;;;;;;;;6.20;99.90;;;;;;5096394;28;19924;-71
2023/04/18 02:02:10;;;;;;;;;;;6.50;99.90;;;;;;5115282;28;19920;-71
2023/04/18 02:04:35;;;;;;;;;;;6.20;99.90;;;;;;5115402;28;19946;-72
2023/04/18 02:07:01;;;;;;;;;;;6.40;99.90;;;;;;5114103;28;19931;-72
2023/04/18 02:09:26;;;;;;;;;;;7.60;99.90;;;;;;5115140;28;20029;-72
2023/04/18 02:11:55;;;;;;;;;;;6.10;99.90;;;;;;5096876;28;19928;-72
2023/04/18 02:14:20;;;;;;;;;;;6.10;99.90;;;;;;5096254;28;19920;-71
2023/04/18 02:16:46;;;;;;;;;;;6.30;99.90;;;;;;5097030;28;19946;-72
2023/04/18 02:19:11;;;;;;;;;;;6.20;99.90;;;;;;5114401;28;19931;-71
2023/04/18 02:21:37;;;;;;;;;;;6.00;99.90;;;;;;5096132;28;19971;-72
2023/04/18 02:24:02;;;;;;;;;;;6.00;99.90;;;;;;5114494;28;19928;-71
2023/04/18 02:26:28;;;;;;;;;;;6.10;99.90;;;;;;5097011;28;19967;-71
2023/04/18 02:28:53;;;;;;;;;;;6.10;99.90;;;;;;5113562;28;19924;-71
2023/04/18 02:31:19;;;;;;;;;;;6.10;99.90;;;;;;5096569;28;19924;-71
2023/04/18 02:33:45;;;;;;;;;;;7.30;99.90;;;;;;5096703;28;19931;-71
2023/04/18 02:36:11;;;;;;;;;;;6.20;99.90;;;;;;5096140;28;19928;-72
2023/04/18 02:38:37;;;;;;;;;;;6.30;99.90;;;;;;5114772;28;20500;-72
2023/04/18 02:41:02;;;;;;;;;;;6.20;99.90;;;;;;5095634;28;19932;-72
2023/04/18 02:43:28;;;;;;;;;;;6.20;99.90;;;;;;5095970;28;19924;-71
2023/04/18 02:45:53;;;;;;;;;;;6.20;99.90;;;;;;5114647;28;20007;-72
2023/04/18 02:48:19;;;;;;;;;;;6.10;99.90;;;;;;5113530;28;20458;-72
2023/04/18 02:50:44;;;;;;;;;;;6.60;99.90;;;;;;5096422;28;19924;-72
2023/04/18 02:53:10;;;;;;;;;;;6.10;99.90;;;;;;5095777;28;20280;-72
2023/04/18 02:55:36;;;;;;;;;;;6.10;99.90;;;;;;5095344;28;20405;-72
2023/04/18 02:58:01;;;;;;;;;;;6.60;99.90;;;;;;5092349;28;19925;-72
2023/04/18 03:00:27;;;;;;;;;;;6.00;99.90;;;;;;5093952;28;20386;-71
2023/04/18 03:02:52;;;;;;;;;;;6.00;99.90;;;;;;5125878;27;19935;-72
2023/04/18 03:05:18;;;;;;;;;;;6.00;99.90;;;;;;5093586;28;19974;-72
2023/04/18 03:07:44;;;;;;;;;;;6.00;99.90;;;;;;5092433;28;20023;-72
2023/04/18 03:10:09;;;;;;;;;;;6.00;99.90;;;;;;5092713;28;19924;-71
2023/04/18 03:12:35;;;;;;;;;;;6.00;99.90;;;;;;5093958;28;20354;-71
2023/04/18 03:15:00;;;;;;;;;;;6.00;99.90;;;;;;5091696;28;19950;-72
2023/04/18 03:17:26;;;;;;;;;;;6.00;99.90;;;;;;5092983;28;19924;-71
2023/04/18 03:19:52;;;;;;;;;;;5.90;99.90;;;;;;5092225;28;19930;-71
2023/04/18 03:22:17;;;;;;;;;;;5.90;99.90;;;;;;5092579;28;19931;-71
2023/04/18 03:24:43;;;;;;;;;;;6.00;99.90;;;;;;5091241;28;19946;-71
2023/04/18 03:27:08;;;;;;;;;;;5.90;99.90;;;;;;5091687;28;20313;-71
2023/04/18 03:29:34;;;;;;;;;;;5.90;99.90;;;;;;5092373;28;20325;-71
2023/04/18 03:31:59;;;;;;;;;;;5.90;99.90;;;;;;5091235;28;19924;-71
2023/04/18 03:34:25;;;;;;;;;;;5.90;99.90;;;;;;5092162;28;19930;-71
2023/04/18 03:36:50;;;;;;;;;;;5.90;99.90;;;;;;5091758;28;20018;-71
2023/04/18 03:39:16;;;;;;;;;;;6.00;99.90;;;;;;5090292;28;19928;-71
2023/04/18 03:41:41;;;;;;;;;;;5.90;99.90;;;;;;5092093;28;19924;-72
2023/04/18 03:44:07;;;;;;;;;;;6.40;99.90;;;;;;5092823;28;19931;-71
2023/04/18 03:46:33;;;;;;;;;;;6.10;99.90;;;;;;5092471;28;19932;-72
2023/04/18 03:48:59;;;;;;;;;;;6.20;99.90;;;;;;5092058;28;20381;-71
2023/04/18 03:51:28;;;;;;;;;;;6.20;99.90;;;;;;5090953;28;19924;-71
2023/04/18 03:53:56;;;;;;;;;;;6.30;99.90;;;;;;5092349;28;19928;-71
2023/04/18 03:56:22;;;;;;;;;;;7.50;99.90;;;;;;5091207;28;20385;-72
2023/04/18 03:58:47;;;;;;;;;;;6.30;99.90;;;;;;5092072;28;19985;-73
2023/04/18 04:01:13;;;;;;;;;;;6.30;99.90;;;;;;5091769;28;19924;-73
2023/04/18 04:03:38;;;;;;;;;;;6.40;99.90;;;;;;5092075;28;20006;-72
2023/04/18 04:06:04;;;;;;;;;;;6.40;99.90;;;;;;5091711;28;20362;-73
2023/04/18 04:08:30;;;;;;;;;;;6.50;99.90;;;;;;5091599;28;20379;-69
2023/04/18 04:10:55;;;;;;;;;;;6.50;99.90;;;;;;5092524;28;20394;-69
2023/04/18 04:13:21;;;;;;;;;;;6.60;99.90;;;;;;5091774;28;20272;-70
2023/04/18 04:15:46;;;;;;;;;;;6.60;99.90;;;;;;5125730;28;20007;-70
2023/04/18 04:18:12;;;;;;;;;;;6.60;99.90;;;;;;5090968;28;20356;-71
2023/04/18 04:20:37;;;;;;;;;;;6.60;99.90;;;;;;5090660;28;19928;-70
2023/04/18 04:23:03;;;;;;;;;;;6.60;99.90;;;;;;5089831;28;19924;-69
2023/04/18 04:25:28;;;;;;;;;;;6.70;99.90;;;;;;5092566;28;19928;-70
2023/04/18 04:27:54;;;;;;;;;;;6.70;99.90;;;;;;5091386;28;19931;-70
2023/04/18 04:30:19;;;;;;;;;;;6.70;99.90;;;;;;5092395;28;20316;-70
2023/04/18 04:32:46;;;;;;;;;;;6.70;99.90;;;;;;5092048;28;20235;-72
2023/04/18 04:35:12;;;;;;;;;;;6.80;99.90;;;;;;5089861;28;19924;-71
2023/04/18 04:37:39;;;;;;;;;;;6.80;99.90;;;;;;5092222;28;19928;-71
2023/04/18 04:40:08;;;;;;;;;;;6.90;99.90;;;;;;5092276;28;19924;-71
2023/04/18 04:42:34;;;;;;;;;;;6.80;99.90;;;;;;5091979;28;19982;-72
2023/04/18 04:45:00;;;;;;;;;;;7.60;99.90;;;;;;5090565;28;19921;-71
2023/04/18 04:47:25;;;;;;;;;;;6.90;99.90;;;;;;5092350;28;19925;-72
2023/04/18 04:49:51;;;;;;;;;;;6.90;99.90;;;;;;5089763;28;20334;-71
2023/04/18 04:52:16;;;;;;;;;;;6.90;99.90;;;;;;5092295;28;19928;-70
2023/04/18 04:54:45;;;;;;;;;;;6.90;99.90;;;;;;5090090;28;20391;-72
2023/04/18 04:57:11;;;;;;;;;;;7.90;99.90;;;;;;5102692;28;19971;-71
2023/04/18 04:59:36;;;;;;;;;;;7.30;99.90;;;;;;5111945;28;20295;-70
2023/04/18 05:02:02;;;;;;;;;;;8.60;99.90;;;;;;5110904;28;19967;-71
2023/04/18 05:04:27;;;;;;;;;;;7.00;99.90;;;;;;5093673;28;20014;-70
2023/04/18 05:06:53;;;;;;;;;;;7.40;99.90;;;;;;5112270;28;19969;-71
2023/04/18 05:09:19;;;;;;;;;;;7.10;99.90;;;;;;5111728;28;19969;-70
2023/04/18 05:11:45;;;;;;;;;;;7.20;99.90;;;;;;5093937;28;19924;-71
2023/04/18 05:14:14;;;;;;;;;;;7.40;99.90;;;;;;5094133;28;20275;-71
2023/04/18 05:16:40;;;;;;;;;;;7.10;99.90;;;;;;5112373;28;19932;-71
2023/04/18 05:19:05;;;;;;;;;;;7.10;99.90;;;;;;5114840;28;19924;-71
2023/04/18 05:21:31;;;;;;;;;;;7.60;99.90;;;;;;5096618;28;19932;-71
2023/04/18 05:23:57;;;;;;;;;;;7.40;99.90;;;;;;5095920;28;19978;-69
2023/04/18 05:26:23;;;;;;;;;;;7.20;99.90;;;;;;5097925;28;19928;-69
2023/04/18 05:28:49;;;;;;;;;;;7.30;99.90;;;;;;5115660;28;19967;-72
2023/04/18 05:31:17;;;;;;;;;;;7.30;99.90;;;;;;5096583;28;19967;-70
2023/04/18 05:33:43;;;;;;;;;;;7.30;99.90;;;;;;5115706;28;20247;-70
2023/04/18 05:36:11;;;;;;;;;;;7.40;99.90;;;;;;5115037;28;20378;-70
2023/04/18 05:38:37;;;;;;;;;;;7.40;99.90;;;;;;5096584;28;19923;-70
2023/04/18 05:41:02;;;;;;;;;;;7.40;99.90;;;;;;5115018;28;20437;-69
2023/04/18 05:43:28;;;;;;;;;;;7.40;99.90;;;;;;5096876;28;19924;-70
2023/04/18 05:45:53;;;;;;;;;;;7.50;99.90;;;;;;5095409;28;19924;-70
2023/04/18 05:48:20;;;;;;;;;;;7.60;99.90;;;;;;5115562;28;20325;-70
2023/04/18 05:50:45;;;;;;;;;;;7.60;99.90;;;;;;5097110;28;19927;-71
2023/04/18 05:53:11;;;;;;;;;;;7.70;99.90;;;;;;5095495;28;19924;-71
2023/04/18 05:55:39;;;;;;;;;;;8.40;99.90;;;;;;5115265;28;19931;-69
2023/04/18 05:58:04;;;;;;;;;;;7.80;99.90;;;;;;5114093;28;20375;-70
2023/04/18 06:00:30;;;;;;;;;;;7.80;99.90;;;;;;5096590;28;19973;-71
2023/04/18 06:02:55;;;;;;;;;;;7.90;99.90;;;;;;5096899;28;20003;-72
2023/04/18 06:05:21;;;;;;;;;;;7.90;99.90;;;;;;5096163;28;19928;-71
2023/04/18 06:07:47;;;;;;;;;;;7.90;99.90;;;;;;5113649;28;19923;-70
2023/04/18 06:10:12;;;;;;;;;;;7.90;99.90;;;;;;5094629;28;19934;-70
2023/04/18 06:12:38;;;;;;;;;;;8.00;99.90;;;;;;5094364;28;20321;-71
2023/04/18 06:15:04;;;;;;;;;;;8.50;99.90;;;;;;5093876;28;19930;-70
2023/04/18 06:17:30;;;;;;;;;;;8.20;99.90;;;;;;5094441;28;19930;-74
2023/04/18 06:19:55;;;;;;;;;;;8.20;99.90;;;;;;5093785;28;19923;-75
2023/04/18 06:22:21;;;;;;;;;;;8.90;99.90;;;;;;5115093;28;19924;-72
2023/04/18 06:24:46;;;;;;;;;;;8.30;99.90;;;;;;5096961;28;19993;-70
2023/04/18 06:27:12;;;;;;;;;;;8.30;99.90;;;;;;5113817;28;20327;-71
2023/04/18 06:29:37;;;;;;;;;;;8.60;99.90;;;;;;5115320;28;19927;-72
2023/04/18 06:32:03;;;;;;;;;;;8.40;99.90;;;;;;5092333;27;19928;-72
2023/04/18 06:34:29;;;;;;;;;;;8.40;99.90;;;;;;5098671;27;19924;-70
2023/04/18 06:36:54;;;;;;;;;;;8.50;99.90;;;;;;5130274;27;19923;-71
2023/04/18 06:39:20;;;;;;;;;;;9.10;99.90;;;;;;5116727;27;20022;-71
2023/04/18 06:41:47;;;;;;;;;;;8.60;99.90;;;;;;5134547;27;19970;-70
2023/04/18 06:44:12;;;;;;;;;;;8.60;99.90;;;;;;5106771;28;20307;-72
2023/04/18 06:46:38;;;;;;;;;;;8.70;99.90;;;;;;5094680;28;19930;-70
2023/04/18 06:49:03;;;;;;;;;;;8.60;99.90;;;;;;5095356;28;19930;-70
2023/04/18 06:51:29;;;;;;;;;;;8.60;99.90;;;;;;5113947;28;19946;-70
2023/04/18 06:53:54;;;;;;;;;;;8.60;99.90;;;;;;5112663;28;20375;-70
2023/04/18 06:56:20;;;;;;;;;;;8.60;99.90;;;;;;5111718;28;19924;-71
2023/04/18 06:58:46;;;;;;;;;;;8.60;99.90;;;;;;5094184;28;20279;-70
2023/04/18 07:01:11;;;;;;;;;;;8.70;99.90;;;;;;5094015;28;19931;-70
2023/04/18 07:03:37;;;;;;;;;;;8.70;99.90;;;;;;5093595;28;19927;-70
2023/04/18 07:06:04;;;;;;;;;;;8.80;99.90;;;;;;5112602;28;19931;-70
2023/04/18 07:08:29;;;;;;;;;;;8.80;99.90;;;;;;5094429;28;19924;-70
2023/04/18 07:10:55;;;;;;;;;;;8.80;99.90;;;;;;5113540;28;19946;-70
2023/04/18 07:13:20;;;;;;;;;;;8.90;99.90;;;;;;5095793;28;20286;-70
2023/04/18 07:15:46;;;;;;;;;;;9.60;99.90;;;;;;5113723;28;19931;-70
2023/04/18 07:18:11;;;;;;;;;;;9.30;99.90;;;;;;5095577;28;19931;-70
2023/04/18 07:20:37;;;;;;;;;;;10.10;99.90;;;;;;5113934;28;20295;-70
2023/04/18 07:23:03;;;;;;;;;;;11.10;99.90;;;;;;5094872;28;19931;-71
2023/04/18 07:25:28;;;;;;;;;;;11.80;99.90;;;;;;5095767;28;19931;-70
2023/04/18 07:27:54;;;;;;;;;;;12.40;99.90;;;;;;5113630;28;20295;-70
2023/04/18 07:30:20;;;;;;;;;;;12.80;99.90;;;;;;5094794;28;19923;-70
2023/04/18 07:32:46;;;;;;;;;;;13.40;99.80;;;;;;5095540;28;19980;-71
2023/04/18 07:35:11;;;;;;;;;;;13.60;98.40;;;;;;5113643;28;20471;-70
2023/04/18 07:37:37;;;;;;;;;;;13.80;97.70;;;;;;5094744;28;20022;-70
2023/04/18 07:40:03;;;;;;;;;;;14.20;98.50;;;;;;5113006;28;19963;-71
2023/04/18 07:42:29;;;;;;;;;;;14.30;97.50;;;;;;5113448;28;20002;-71
2023/04/18 07:44:58;;;;;;;;;;;14.60;96.00;;;;;;5112650;28;19959;-71
2023/04/18 07:47:24;;;;;;;;;;;14.80;95.80;;;;;;5095617;28;19927;-71
2023/04/18 07:49:50;;;;;;;;;;;15.30;96.90;;;;;;5095272;28;19923;-71
2023/04/18 07:52:15;;;;;;;;;;;15.50;95.20;;;;;;5094613;28;19974;-71
2023/04/18 07:54:41;;;;;;;;;;;16.00;94.70;;;;;;5095293;28;19931;-71
2023/04/18 07:57:06;;;;;;;;;;;15.90;93.80;;;;;;5094577;28;20315;-71
2023/04/18 07:59:32;;;;;;;;;;;16.00;94.30;;;;;;5112580;28;20018;-71
2023/04/18 08:02:02;;;;;;;;;;;16.20;93.50;;;;;;5094880;28;20131;-71
2023/04/18 08:04:27;;;;;;;;;;;16.10;94.00;;;;;;5095020;28;20379;-70
2023/04/18 08:06:53;;;;;;;;;;;16.20;94.70;;;;;;5094185;28;19935;-70
2023/04/18 08:09:20;;;;;;;;;;;16.60;95.10;;;;;;5113461;28;20018;-71
2023/04/18 08:11:46;;;;;;;;;;;16.70;93.30;;;;;;5093705;28;20271;-70
2023/04/18 08:14:12;;;;;;;;;;;17.00;93.80;;;;;;5113184;28;19923;-70
2023/04/18 08:16:37;;;;;;;;;;;17.20;92.80;;;;;;5113538;28;20410;-70
2023/04/18 08:19:03;;;;;;;;;;;16.90;92.50;;;;;;5112610;28;19927;-71
2023/04/18 08:21:28;;;;;;;;;;;17.30;93.30;;;;;;5113253;28;19928;-70
2023/04/18 08:23:54;;;;;;;;;;;17.40;91.70;;;;;;5112751;28;19931;-70
2023/04/18 08:26:20;;;;;;;;;;;17.20;92.60;;;;;;5094066;28;19923;-70
2023/04/18 08:28:46;;;;;;;;;;;17.50;91.60;;;;;;5091177;28;20398;-71
2023/04/18 08:31:13;;;;;;;;;;;17.80;91.90;;;;;;5109437;28;20007;-71
2023/04/18 08:33:39;;;;;;;;;;;17.50;91.30;;;;;;5094056;28;20290;-71
2023/04/18 08:36:04;;;;;;;;;;;17.80;91.10;;;;;;5093896;28;19924;-71
2023/04/18 08:38:30;;;;;;;;;;;18.00;91.60;;;;;;5094695;28;19924;-71
2023/04/18 08:40:55;;;;;;;;;;;18.10;89.90;;;;;;5111734;28;20068;-72
2023/04/18 08:43:21;;;;;;;;;;;17.90;88.00;;;;;;5094038;28;20428;-71
2023/04/18 08:45:47;;;;;;;;;;;18.20;90.10;;;;;;5094484;28;19969;-71
2023/04/18 08:48:13;;;;;;;;;;;18.20;90.00;;;;;;5093414;28;19930;-71
2023/04/18 08:50:39;;;;;;;;;;;18.20;89.80;;;;;;5113537;28;19969;-71
2023/04/18 08:53:05;;;;;;;;;;;18.10;90.40;;;;;;5097789;28;19927;-72
2023/04/18 08:55:32;;;;;;;;;;;17.90;88.30;;;;;;5116135;28;19946;-71
2023/04/18 08:57:58;;;;;;;;;;;18.30;87.00;;;;;;5131854;27;19927;-71
2023/04/18 09:00:24;;;;;;;;;;;18.30;87.50;;;;;;5098404;28;20370;-71
2023/04/18 09:02:55;;;;;;;;;;;18.00;87.40;;;;;;5097347;28;19924;-71
2023/04/18 09:05:21;;;;;;;;;;;18.10;86.20;;;;;;5116925;28;19924;-71
2023/04/18 09:07:47;;;;;;;;;;;18.20;87.40;;;;;;5098304;28;20349;-72
2023/04/18 09:10:23;;;;;;;;;;;18.50;87.10;;;;;;5097290;28;19972;-71
2023/04/18 09:12:49;;;;;;;;;;;18.80;87.00;;;;;;5098398;28;20011;-71
2023/04/18 09:15:15;;;;;;;;;;;18.90;83.70;;;;;;5115597;28;19923;-71
2023/04/18 09:17:42;;;;;;;;;;;18.90;83.70;;;;;;5095233;28;19932;-70
2023/04/18 09:20:09;;;;;;;;;;;18.20;84.00;;;;;;5097336;28;19924;-71
2023/04/18 09:22:45;;;;;;;;;;;18.70;84.90;;;;;;5115569;28;20276;-71
2023/04/18 09:25:10;;;;;;;;;;;18.50;86.10;;;;;;5097673;28;20460;-71
2023/04/18 09:27:36;;;;;;;;;;;18.90;85.10;;;;;;5115958;28;20407;-71
2023/04/18 09:30:02;;;;;;;;;;;19.00;84.60;;;;;;5096952;28;20383;-71
2023/04/18 09:32:28;;;;;;;;;;;18.40;84.30;;;;;;5095051;28;20065;-71
2023/04/18 09:34:56;;;;;;;;;;;18.40;84.70;;;;;;5111342;28;19968;-71
2023/04/18 09:37:22;;;;;;;;;;;18.40;85.20;;;;;;5114626;28;19936;-71
2023/04/18 09:39:49;;;;;;;;;;;18.00;86.10;;;;;;5097897;28;19946;-70
2023/04/18 09:42:15;;;;;;;;;;;18.10;85.20;;;;;;5115792;28;19931;-71
2023/04/18 09:44:58;;;;;;;;;;;18.10;86.60;;;;;;5115256;28;19924;-71
2023/04/18 09:47:25;;;;;;;;;;;18.40;86.70;;;;;;5096080;27;19950;-71
2023/04/18 09:49:51;;;;;;;;;;;18.30;86.50;;;;;;5105223;28;19930;-71
2023/04/18 09:52:18;;;;;;;;;;;18.40;86.10;;;;;;5115344;28;20022;-71
2023/04/18 09:54:45;;;;;;;;;;;18.70;87.80;;;;;;5115802;28;19953;-71
2023/04/18 09:57:12;;;;;;;;;;;19.00;86.00;;;;;;5114154;28;19952;-71
2023/04/18 09:59:49;;;;;;;;;;;19.00;85.10;;;;;;5115423;28;19932;-71
2023/04/18 10:02:21;;;;;;;;;;;18.70;85.40;;;;;;5114584;28;19942;-71
2023/04/18 10:04:48;;;;;;;;;;;18.70;86.40;;;;;;5096523;28;19928;-71
2023/04/18 10:07:15;;;;;;;;;;;19.00;87.40;;;;;;5112299;28;20010;-71
2023/04/18 10:09:43;;;;;;;;;;;18.90;85.80;;;;;;5113008;28;19931;-71
2023/04/18 10:12:11;;;;;;;;;;;19.40;87.30;;;;;;5092733;28;19923;-71
2023/04/18 10:14:38;;;;;;;;;;;19.10;86.80;;;;;;5114765;28;19924;-71
2023/04/18 10:17:03;;;;;;;;;;;19.20;85.10;;;;;;5096333;28;19934;-71
2023/04/18 10:19:29;;;;;;;;;;;19.30;86.80;;;;;;5113839;28;19924;-71
2023/04/18 10:21:55;;;;;;;;;;;19.50;82.70;;;;;;5095708;28;19977;-71
2023/04/18 10:24:40;;;;;;;;;;;19.50;86.10;;;;;;5097015;28;19978;-71
2023/04/18 10:27:05;;;;;;;;;;;19.30;82.60;;;;;;5086847;28;19924;-71
2023/04/18 10:30:00;;;;;;;;;;;18.80;84.00;;;;;;5114433;28;19935;-71
2023/04/18 10:32:26;;;;;;;;;;;19.00;86.30;;;;;;5074120;28;19923;-71
2023/04/18 10:34:52;;;;;;;;;;;19.40;87.50;;;;;;5107204;28;19924;-71
2023/04/18 10:37:18;;;;;;;;;;;19.60;87.00;;;;;;5096759;28;19924;-71
2023/04/18 10:39:52;;;;;;;;;;;19.90;87.20;;;;;;5113754;28;19938;-71
2023/04/18 10:42:18;;;;;;;;;;;19.50;89.30;;;;;;5114576;28;19935;-72
2023/04/18 10:45:03;;;;;;;;;;;19.50;85.60;;;;;;5109314;27;19931;-71
2023/04/18 10:47:29;;;;;;;;;;;19.70;85.80;;;;;;5112029;27;19988;-72
2023/04/18 10:49:56;;;;;;;;;;;19.30;84.90;;;;;;5111003;28;20745;-71
2023/04/18 10:52:21;;;;;;;;;;;19.60;84.50;;;;;;5113480;28;20433;-72
2023/04/18 10:54:51;;;;;;;;;;;19.90;86.70;;;;;;5113521;28;19924;-73
2023/04/18 10:57:16;;;;;;;;;;;19.50;85.70;;;;;;5096202;28;19924;-73
2023/04/18 10:59:43;;;;;;;;;;;19.80;86.50;;;;;;5114571;28;20272;-70
2023/04/18 11:02:21;;;;;;;;;;;19.90;86.70;;;;;;5095262;28;19924;-71
2023/04/18 11:04:50;;;;;;;;;;;20.30;86.30;;;;;;5113326;28;19931;-71
2023/04/18 11:07:16;;;;;;;;;;;20.10;83.50;;;;;;5076187;28;20081;-70
2023/04/18 11:09:50;;;;;;;;;;;19.80;83.50;;;;;;5075398;28;20003;-72
2023/04/18 11:12:15;;;;;;;;;;;19.50;83.90;;;;;;5094323;28;19924;-70
2023/04/18 11:14:41;;;;;;;;;;;19.30;85.10;;;;;;5092308;28;19947;-71
2023/04/18 11:17:14;;;;;;;;;;;19.40;85.60;;;;;;5088680;28;20010;-71
2023/04/18 11:19:40;;;;;;;;;;;19.10;85.90;;;;;;5095786;28;19930;-71
2023/04/18 11:22:05;;;;;;;;;;;19.30;86.00;;;;;;5113010;28;19924;-71
2023/04/18 11:24:31;;;;;;;;;;;19.40;86.30;;;;;;5095796;28;19924;-71
2023/04/18 11:26:57;;;;;;;;;;;19.20;86.70;;;;;;5095383;28;19931;-71
2023/04/18 11:29:26;;;;;;;;;;;19.10;85.80;;;;;;5095102;28;19971;-71
2023/04/18 11:31:52;;;;;;;;;;;19.30;87.80;;;;;;5095436;28;19976;-72
2023/04/18 11:34:17;;;;;;;;;;;19.30;85.90;;;;;;5114175;28;19931;-71
2023/04/18 11:36:46;;;;;;;;;;;19.50;88.50;;;;;;5113144;28;19927;-71
2023/04/18 11:39:13;;;;;;;;;;;19.70;86.30;;;;;;5095148;28;19930;-71
2023/04/18 11:41:39;;;;;;;;;;;19.30;86.30;;;;;;5095621;28;19931;-70
2023/04/18 11:44:05;;;;;;;;;;;19.00;85.90;;;;;;5095000;28;19960;-71
2023/04/18 11:46:37;;;;;;;;;;;19.10;87.50;;;;;;5113303;28;19985;-71
2023/04/18 11:49:03;;;;;;;;;;;19.30;88.10;;;;;;5095587;28;19947;-71
2023/04/18 11:51:37;;;;;;;;;;;19.00;87.20;;;;;;5112795;28;20371;-71
2023/04/18 11:54:02;;;;;;;;;;;19.30;86.80;;;;;;5095387;28;20390;-71
2023/04/18 11:56:28;;;;;;;;;;;19.50;87.80;;;;;;5091528;28;19931;-71
2023/04/18 11:58:54;;;;;;;;;;;19.50;87.50;;;;;;5090589;28;19924;-71
2023/04/18 12:01:21;;;;;;;;;;;19.60;86.10;;;;;;5091645;28;19931;-71
2023/04/18 12:04:06;;;;;;;;;;;19.90;88.60;;;;;;5091545;28;19977;-75
2023/04/18 12:06:51;;;;;;;;;;;20.10;88.00;;;;;;5092922;28;19924;-72
2023/04/18 12:09:17;;;;;;;;;;;19.60;89.00;;;;;;5091988;28;20368;-71
2023/04/18 12:11:43;;;;;;;;;;;19.70;90.20;;;;;;5091943;28;19924;-71
2023/04/18 12:14:18;;;;;;;;;;;19.40;90.40;;;;;;5091518;28;19938;-71
2023/04/18 12:16:44;;;;;;;;;;;19.60;91.00;;;;;;5093209;28;20299;-71
2023/04/18 12:19:12;;;;;;;;;;;18.90;91.00;;;;;;5089785;28;20020;-71
2023/04/18 12:21:52;;;;;;;;;;;17.90;92.20;;;;;;5093160;28;19928;-71
2023/04/18 12:24:18;;;;;;;;;;;17.20;93.10;;;;;;5092066;28;19924;-71
2023/04/18 12:26:44;;;;;;;;;;;17.50;94.20;;;;;;5093196;28;19928;-72
2023/04/18 12:29:10;;;;;;;;;;;18.00;94.60;;;;;;5097195;28;19927;-71
2023/04/18 12:31:35;;;;;;;;;;;18.40;93.50;;;;;;5096112;28;19924;-71
2023/04/18 12:34:01;;;;;;;;;;;18.70;93.80;;;;;;5095921;28;19978;-72
2023/04/18 12:36:29;;;;;;;;;;;18.90;93.20;;;;;;5095367;28;19919;-72
2023/04/18 12:38:55;;;;;;;;;;;18.70;93.30;;;;;;5094333;28;20019;-72
2023/04/18 12:41:20;;;;;;;;;;;18.70;94.20;;;;;;5096875;28;20446;-71
2023/04/18 12:43:46;;;;;;;;;;;18.90;93.30;;;;;;5097453;28;19938;-72
2023/04/18 12:46:11;;;;;;;;;;;18.70;93.40;;;;;;5094590;28;19928;-72
2023/04/18 12:48:37;;;;;;;;;;;18.70;92.70;;;;;;5096665;28;19928;-71
2023/04/18 12:51:02;;;;;;;;;;;18.20;93.70;;;;;;5096344;28;19925;-72
2023/04/18 12:53:28;;;;;;;;;;;17.70;94.70;;;;;;5094580;28;20344;-72
2023/04/18 12:55:53;;;;;;;;;;;17.90;95.10;;;;;;5096314;28;20028;-72
2023/04/18 12:58:19;;;;;;;;;;;17.80;94.80;;;;;;5116336;28;20002;-71
2023/04/18 13:00:45;;;;;;;;;;;17.90;94.90;;;;;;5098278;28;20376;-71
2023/04/18 13:03:10;;;;;;;;;;;18.00;94.00;;;;;;5116778;28;20016;-71
2023/04/18 13:05:36;;;;;;;;;;;17.90;93.40;;;;;;5098037;28;19957;-72
2023/04/18 13:08:02;;;;;;;;;;;17.70;92.60;;;;;;5097682;28;19926;-71
2023/04/18 13:10:27;;;;;;;;;;;17.40;92.60;;;;;;5116852;28;19924;-71
2023/04/18 13:12:53;;;;;;;;;;;17.20;93.30;;;;;;5097843;28;19929;-72
2023/04/18 13:15:21;;;;;;;;;;;17.30;93.50;;;;;;5115584;28;19942;-72
2023/04/18 13:17:47;;;;;;;;;;;17.20;93.30;;;;;;5116200;28;20358;-72
2023/04/18 13:20:13;;;;;;;;;;;17.10;92.90;;;;;;5097857;28;20375;-72
2023/04/18 13:22:39;;;;;;;;;;;16.90;93.30;;;;;;5116055;28;19920;-73
2023/04/18 13:25:06;;;;;;;;;;;16.90;94.40;;;;;;5097849;28;19971;-71
2023/04/18 13:27:31;;;;;;;;;;;17.00;93.90;;;;;;5097685;28;19920;-72
2023/04/18 13:29:57;;;;;;;;;;;16.90;94.70;;;;;;5115292;28;19924;-72
2023/04/18 13:32:23;;;;;;;;;;;16.70;95.60;;;;;;5116207;28;19934;-72
2023/04/18 13:34:48;;;;;;;;;;;16.60;96.10;;;;;;5097868;28;20366;-72
2023/04/18 13:37:14;;;;;;;;;;;16.50;95.50;;;;;;5096198;28;20386;-72
2023/04/18 13:39:40;;;;;;;;;;;16.40;95.40;;;;;;5097450;28;19924;-72
2023/04/18 13:42:06;;;;;;;;;;;16.40;95.20;;;;;;5097616;28;19931;-72
2023/04/18 13:44:32;;;;;;;;;;;16.10;94.90;;;;;;5115469;28;19924;-71
2023/04/18 13:46:59;;;;;;;;;;;15.80;95.80;;;;;;5097803;28;20435;-75
2023/04/18 13:49:25;;;;;;;;;;;15.80;96.60;;;;;;5114589;28;19949;-72
2023/04/18 13:51:52;;;;;;;;;;;15.90;96.40;;;;;;5095602;28;20018;-72
2023/04/18 13:54:18;;;;;;;;;;;16.10;96.40;;;;;;5110086;27;19924;-72
2023/04/18 13:56:47;;;;;;;;;;;16.20;96.20;;;;;;5091165;28;20438;-72
2023/04/18 13:59:13;;;;;;;;;;;16.00;95.90;;;;;;5114730;27;20022;-73
2023/04/18 14:01:38;;;;;;;;;;;15.80;96.70;;;;;;5097738;27;19928;-72
2023/04/18 14:04:04;;;;;;;;;;;15.80;96.10;;;;;;5115236;27;20391;-73
2023/04/18 14:06:29;;;;;;;;;;;15.80;96.10;;;;;;5096278;27;19923;-72
2023/04/18 14:08:55;;;;;;;;;;;16.00;96.30;;;;;;5115835;27;20023;-73
2023/04/18 14:11:21;;;;;;;;;;;15.80;96.20;;;;;;5097911;27;19924;-73
2023/04/18 14:13:47;;;;;;;;;;;16.00;95.50;;;;;;5115511;27;19931;-73
2023/04/18 14:16:13;;;;;;;;;;;16.00;96.20;;;;;;5115185;27;19924;-74
2023/04/18 14:18:39;;;;;;;;;;;16.20;95.10;;;;;;5091518;27;19928;-74